Toyomasa Maru — JJ3927 — position and weather

sailwx.info

Track history (hours):
 
Tides and Currents Weather Stations Pressure Air Temp Water Temp Dewpoint Dewpoint Depression Visibility Wind Speed Wind Dir Waves Ship Positions

Toyomasa Maru

Last reported at 2015-May-04 02:31 UTC. Time now 2015-May-04 02:59 UTC.
Position N 35°32' E 139°48'.

Length 101 m; draft 4.4 m.

Type: Tanker. MMSI: 431300401.

Date/timePositionNaut miles runAvg speedWind from/ knotsBaromVisibWave heightAir tempDewpointWater temp
2015-May-04 02:31N 35°32' E 139°48'0 0.0
2015-May-04 01:31N 35°32' E 139°48'0 0.0
2015-May-04 00:31N 35°32' E 139°48'0 0.0
2015-May-03 23:31N 35°32' E 139°48'0 0.0
2015-May-03 22:31N 35°32' E 139°48'0 0.0
2015-May-03 21:31N 35°32' E 139°48'0 0.0
2015-May-03 20:31N 35°32' E 139°48'0 0.0
2015-May-03 19:31N 35°32' E 139°48'0 0.0
2015-May-03 18:31N 35°32' E 139°48'0 0.0
2015-May-03 17:31N 35°32' E 139°48'0 0.0
2015-May-03 16:31N 35°32' E 139°48'0 0.0
2015-May-03 15:31N 35°32' E 139°48'0 0.0
2015-May-03 14:31N 35°32' E 139°48'0 0.0
2015-May-03 13:31N 35°32' E 139°48'0 0.0
2015-May-03 12:31N 35°32' E 139°48'0 0.0
2015-May-03 11:31N 35°32' E 139°48'0 0.0
2015-May-03 10:31N 35°32' E 139°48'0 0.0
2015-May-03 09:31N 35°32' E 139°48'0 0.0
2015-May-03 08:31N 35°32' E 139°48'0 0.0
2015-May-03 07:33N 35°32' E 139°48'0 0.0
2015-May-03 06:33N 35°32' E 139°48'0 0.0
2015-May-03 05:33N 35°32' E 139°48'0 0.0
2015-May-03 04:33N 35°32' E 139°48'0 0.0
2015-May-03 03:30N 35°32' E 139°48'0 0.0
2015-May-03 02:27N 35°32' E 139°48'3 3.1
2015-May-03 01:33N 35°30' E 139°51'1110.6
2015-May-03 00:33N 35°20' E 139°45'1111.5
2015-May-02 23:34N 35°09' E 139°46'1212.5
2015-May-02 22:33N 34°59' E 139°36'  
2015-Apr-30 07:33N 35°01' E 139°34'1313.7
2015-Apr-30 06:33N 35°11' E 139°45'1212.3
2015-Apr-30 05:33N 35°23' E 139°42'8 7.7
2015-Apr-30 04:34N 35°30' E 139°45'0 0.0
2015-Apr-30 03:34N 35°30' E 139°45'0 0.0
2015-Apr-30 02:32N 35°30' E 139°45'0 0.0
2015-Apr-30 01:32N 35°30' E 139°45'0 0.0
2015-Apr-30 00:26N 35°30' E 139°45'0 0.0
2015-Apr-29 23:14N 35°30' E 139°45'2 2.5
2015-Apr-29 22:34N 35°29' E 139°43'6 5.9
2015-Apr-29 21:34N 35°24' E 139°45'0 0.0
2015-Apr-29 20:32N 35°24' E 139°45'0 0.0
2015-Apr-29 19:32N 35°24' E 139°45'0 0.0
2015-Apr-29 18:29N 35°24' E 139°45'0 0.1
2015-Apr-29 17:32N 35°24' E 139°45'0 0.0
2015-Apr-29 16:32N 35°24' E 139°45'0 0.0
2015-Apr-29 15:32N 35°24' E 139°45'0 0.1
2015-Apr-29 14:32N 35°24' E 139°45'0 0.1
2015-Apr-29 13:32N 35°24' E 139°45'0 0.0
2015-Apr-29 12:32N 35°24' E 139°45'0 0.0
2015-Apr-29 11:32N 35°24' E 139°45'0 0.1
2015-Apr-29 10:32N 35°24' E 139°45'0 0.0
2015-Apr-29 09:32N 35°24' E 139°45'0 0.1
2015-Apr-29 08:32N 35°24' E 139°45'0 0.0
2015-Apr-29 07:32N 35°24' E 139°45'0 0.0
2015-Apr-29 06:32N 35°24' E 139°45'3 3.1
2015-Apr-29 05:33N 35°21' E 139°44'1211.8
2015-Apr-29 04:33N 35°09' E 139°46'1312.5
2015-Apr-29 03:33N 34°59' E 139°37'234 6.3
2015-Apr-27 14:26N 34°09' E 134°59'1314.2
2015-Apr-27 13:30N 34°22' E 134°60'1313.8
2015-Apr-27 12:33N 34°34' E 135°04'  
Track history (hours):
 
Tides and Currents Weather Stations Pressure Air Temp Water Temp Dewpoint Dewpoint Depression Visibility Wind Speed Wind Dir Waves Ship Positions

Toyomasa Maru

Last reported at 2015-May-04 02:31 UTC. Time now 2015-May-04 02:59 UTC.
Position N 35°32' E 139°48'.

Length 101 m; draft 4.4 m.

Type: Tanker. MMSI: 431300401.

Date/timePositionNaut miles runAvg speedWind from/ knotsBaromVisibWave heightAir tempDewpointWater temp
2015-May-04 02:31N 35°32' E 139°48'0 0.0
2015-May-04 01:31N 35°32' E 139°48'0 0.0
2015-May-04 00:31N 35°32' E 139°48'0 0.0
2015-May-03 23:31N 35°32' E 139°48'0 0.0
2015-May-03 22:31N 35°32' E 139°48'0 0.0
2015-May-03 21:31N 35°32' E 139°48'0 0.0
2015-May-03 20:31N 35°32' E 139°48'0 0.0
2015-May-03 19:31N 35°32' E 139°48'0 0.0
2015-May-03 18:31N 35°32' E 139°48'0 0.0
2015-May-03 17:31N 35°32' E 139°48'0 0.0
2015-May-03 16:31N 35°32' E 139°48'0 0.0
2015-May-03 15:31N 35°32' E 139°48'0 0.0
2015-May-03 14:31N 35°32' E 139°48'0 0.0
2015-May-03 13:31N 35°32' E 139°48'0 0.0
2015-May-03 12:31N 35°32' E 139°48'0 0.0
2015-May-03 11:31N 35°32' E 139°48'0 0.0
2015-May-03 10:31N 35°32' E 139°48'0 0.0
2015-May-03 09:31N 35°32' E 139°48'0 0.0
2015-May-03 08:31N 35°32' E 139°48'0 0.0
2015-May-03 07:33N 35°32' E 139°48'0 0.0
2015-May-03 06:33N 35°32' E 139°48'0 0.0
2015-May-03 05:33N 35°32' E 139°48'0 0.0
2015-May-03 04:33N 35°32' E 139°48'0 0.0
2015-May-03 03:30N 35°32' E 139°48'0 0.0
2015-May-03 02:27N 35°32' E 139°48'3 3.1
2015-May-03 01:33N 35°30' E 139°51'1110.6
2015-May-03 00:33N 35°20' E 139°45'1111.5
2015-May-02 23:34N 35°09' E 139°46'1212.5
2015-May-02 22:33N 34°59' E 139°36'  
2015-Apr-30 07:33N 35°01' E 139°34'1313.7
2015-Apr-30 06:33N 35°11' E 139°45'1212.3
2015-Apr-30 05:33N 35°23' E 139°42'8 7.7
2015-Apr-30 04:34N 35°30' E 139°45'0 0.0
2015-Apr-30 03:34N 35°30' E 139°45'0 0.0
2015-Apr-30 02:32N 35°30' E 139°45'0 0.0
2015-Apr-30 01:32N 35°30' E 139°45'0 0.0
2015-Apr-30 00:26N 35°30' E 139°45'0 0.0
2015-Apr-29 23:14N 35°30' E 139°45'2 2.5
2015-Apr-29 22:34N 35°29' E 139°43'6 5.9
2015-Apr-29 21:34N 35°24' E 139°45'0 0.0
2015-Apr-29 20:32N 35°24' E 139°45'0 0.0
2015-Apr-29 19:32N 35°24' E 139°45'0 0.0
2015-Apr-29 18:29N 35°24' E 139°45'0 0.1
2015-Apr-29 17:32N 35°24' E 139°45'0 0.0
2015-Apr-29 16:32N 35°24' E 139°45'0 0.0
2015-Apr-29 15:32N 35°24' E 139°45'0 0.1
2015-Apr-29 14:32N 35°24' E 139°45'0 0.1
2015-Apr-29 13:32N 35°24' E 139°45'0 0.0
2015-Apr-29 12:32N 35°24' E 139°45'0 0.0
2015-Apr-29 11:32N 35°24' E 139°45'0 0.1
2015-Apr-29 10:32N 35°24' E 139°45'0 0.0
2015-Apr-29 09:32N 35°24' E 139°45'0 0.1
2015-Apr-29 08:32N 35°24' E 139°45'0 0.0
2015-Apr-29 07:32N 35°24' E 139°45'0 0.0
2015-Apr-29 06:32N 35°24' E 139°45'3 3.1
2015-Apr-29 05:33N 35°21' E 139°44'1211.8
2015-Apr-29 04:33N 35°09' E 139°46'1312.5
2015-Apr-29 03:33N 34°59' E 139°37'234 6.3
2015-Apr-27 14:26N 34°09' E 134°59'1314.2
2015-Apr-27 13:30N 34°22' E 134°60'1313.8
2015-Apr-27 12:33N 34°34' E 135°04'  

Dump ship's entire track history